Time;durP1;ratioP1;P1;durP2;ratioP2;P2;SDS_P1;SDS_P2;PMS_P1;PMS_P2;Temp;Humidity;BMP_temperature;BMP_pressure;BME280_temperature;BME280_humidity;BME280_pressure;Samples;Min_cycle;Max_cycle;Signal;HPM_P1;HPM_P2
2022/04/22 00:00:28;;;;;;;;;;;14.40;99.90;;;;;;5050968;28;19936;-93
2022/04/22 00:02:49;;;;;;;;;;;14.30;99.90;;;;;;5050603;28;20369;-92
2022/04/22 00:05:17;;;;;;;;;;;14.30;99.90;;;;;;5055776;28;19916;-96
2022/04/22 00:07:46;;;;;;;;;;;14.20;99.90;;;;;;5056198;28;20181;-93
2022/04/22 00:10:11;;;;;;;;;;;14.20;99.90;;;;;;5065608;28;19904;-95
2022/04/22 00:12:45;;;;;;;;;;;14.20;99.90;;;;;;5066559;28;19913;-94
2022/04/22 00:15:13;;;;;;;;;;;14.20;99.90;;;;;;5053345;28;20436;-95
2022/04/22 00:17:50;;;;;;;;;;;14.20;99.90;;;;;;5036329;28;20203;-93
2022/04/22 00:20:28;;;;;;;;;;;14.10;99.90;;;;;;5053005;28;19909;-93
2022/04/22 00:22:57;;;;;;;;;;;14.10;99.90;;;;;;5052439;28;19920;-96
2022/04/22 00:25:25;;;;;;;;;;;14.10;99.90;;;;;;5047213;28;19912;-95
2022/04/22 00:27:53;;;;;;;;;;;14.00;99.90;;;;;;5055019;28;20004;-92
2022/04/22 00:30:26;;;;;;;;;;;14.00;99.90;;;;;;5051943;28;19912;-92
2022/04/22 00:33:19;;;;;;;;;;;13.90;99.90;;;;;;5060797;28;19905;-94
2022/04/22 00:35:47;;;;;;;;;;;13.90;99.90;;;;;;5053477;28;20285;-93
2022/04/22 00:38:13;;;;;;;;;;;13.90;99.90;;;;;;5052748;28;19908;-94
2022/04/22 00:43:40;;;;;;;;;;;13.80;99.90;;;;;;5043824;28;19909;-93
2022/04/22 00:46:05;;;;;;;;;;;13.80;99.90;;;;;;5054697;28;19935;-92
2022/04/22 00:48:39;;;;;;;;;;;13.70;99.90;;;;;;5053294;28;19908;-93
2022/04/22 00:51:05;;;;;;;;;;;13.70;99.90;;;;;;5054823;28;19913;-95
2022/04/22 00:53:35;;;;;;;;;;;13.70;99.90;;;;;;5048068;28;19917;-93
2022/04/22 00:56:07;;;;;;;;;;;13.60;99.90;;;;;;5053162;28;19905;-93
2022/04/22 00:58:35;;;;;;;;;;;13.60;99.90;;;;;;5054655;28;19916;-92
2022/04/22 01:01:12;;;;;;;;;;;13.60;99.90;;;;;;5058727;28;19908;-96
2022/04/22 01:09:47;;;;;;;;;;;13.50;99.90;;;;;;5051880;28;20171;-93
2022/04/22 01:12:00;;;;;;;;;;;13.40;99.90;;;;;;5057595;28;19971;-95
2022/04/22 01:17:48;;;;;;;;;;;;;;;;;;;;;
2022/04/22 01:20:20;;;;;;;;;;;13.30;99.90;;;;;;5055962;28;20011;-94
2022/04/22 01:23:17;;;;;;;;;;;13.30;99.90;;;;;;5054807;28;19975;-93
2022/04/22 01:26:09;;;;;;;;;;;;;;;;;;;;;
2022/04/22 01:28:38;;;;;;;;;;;13.20;99.90;;;;;;5050667;28;19919;-92
2022/04/22 01:31:18;;;;;;;;;;;13.20;99.90;;;;;;5053045;28;19905;-95
2022/04/22 01:33:49;;;;;;;;;;;13.10;99.90;;;;;;5048428;28;19963;-93
2022/04/22 01:36:17;;;;;;;;;;;13.10;99.90;;;;;;5060587;28;20389;-92
2022/04/22 01:38:53;;;;;;;;;;;13.00;99.90;;;;;;5048151;28;19919;-92
2022/04/22 01:41:29;;;;;;;;;;;13.00;99.90;;;;;;5039909;28;20220;-93
2022/04/22 01:44:00;;;;;;;;;;;13.00;99.90;;;;;;5040585;28;19913;-93
2022/04/22 01:46:31;;;;;;;;;;;13.00;99.90;;;;;;5053158;28;19905;-93
2022/04/22 01:49:08;;;;;;;;;;;12.90;99.90;;;;;;5055467;28;19905;-96
2022/04/22 01:51:43;;;;;;;;;;;12.90;99.90;;;;;;5055453;28;20036;-92
2022/04/22 01:54:14;;;;;;;;;;;12.90;99.90;;;;;;5046596;28;20281;-95
2022/04/22 01:56:42;;;;;;;;;;;12.90;99.90;;;;;;5053693;28;20369;-93
2022/04/22 01:59:17;;;;;;;;;;;12.80;99.90;;;;;;5047882;28;19948;-95
2022/04/22 02:01:48;;;;;;;;;;;12.80;99.90;;;;;;5063927;28;19900;-94
2022/04/22 02:04:22;;;;;;;;;;;12.70;99.90;;;;;;5066536;28;19920;-92
2022/04/22 02:06:59;;;;;;;;;;;12.70;99.90;;;;;;5056454;28;20285;-92
2022/04/22 02:09:34;;;;;;;;;;;12.70;99.90;;;;;;5035027;28;19909;-94
2022/04/22 02:14:51;;;;;;;;;;;12.50;99.90;;;;;;5047027;28;19917;-93
2022/04/22 02:17:41;;;;;;;;;;;12.50;99.90;;;;;;5050903;28;20189;-95
2022/04/22 02:20:20;;;;;;;;;;;12.50;99.90;;;;;;5051097;28;19948;-94
2022/04/22 02:23:05;;;;;;;;;;;12.50;99.90;;;;;;5053731;28;19921;-93
2022/04/22 02:25:35;;;;;;;;;;;12.40;99.90;;;;;;5052568;28;19913;-93
2022/04/22 02:31:01;;;;;;;;;;;12.40;99.90;;;;;;5053490;28;19955;-93
2022/04/22 02:33:48;;;;;;;;;;;12.40;99.90;;;;;;5052488;28;19924;-95
2022/04/22 02:36:25;;;;;;;;;;;12.40;99.90;;;;;;5040717;28;19909;-94
2022/04/22 02:39:05;;;;;;;;;;;12.50;99.90;;;;;;5053157;28;19909;-94
2022/04/22 02:47:15;;;;;;;;;;;12.50;99.90;;;;;;5052638;28;19931;-93
2022/04/22 02:49:44;;;;;;;;;;;12.50;99.90;;;;;;5052532;28;19909;-92
2022/04/22 02:52:36;;;;;;;;;;;12.50;99.90;;;;;;5054601;28;19964;-95
2022/04/22 02:55:04;;;;;;;;;;;12.60;99.90;;;;;;5040565;28;19939;-92
2022/04/22 02:57:43;;;;;;;;;;;12.60;99.90;;;;;;5056114;28;19916;-92
2022/04/22 03:00:15;;;;;;;;;;;12.70;99.90;;;;;;5054521;28;20400;-94
2022/04/22 03:03:05;;;;;;;;;;;12.70;99.90;;;;;;5053416;28;19915;-93
2022/04/22 03:05:38;;;;;;;;;;;12.70;99.90;;;;;;5057487;28;19963;-95
2022/04/22 03:08:09;;;;;;;;;;;12.70;99.90;;;;;;5059300;28;19992;-94
2022/04/22 03:10:49;;;;;;;;;;;12.70;99.90;;;;;;5059332;28;19968;-94
2022/04/22 03:13:26;;;;;;;;;;;12.60;99.90;;;;;;5061059;28;19917;-96
2022/04/22 03:16:00;;;;;;;;;;;12.60;99.90;;;;;;5053679;28;20055;-94
2022/04/22 03:18:44;;;;;;;;;;;12.60;99.90;;;;;;5060455;28;20002;-94
2022/04/22 03:21:27;;;;;;;;;;;12.50;99.90;;;;;;5063542;28;19940;-93
2022/04/22 03:23:57;;;;;;;;;;;12.60;99.90;;;;;;5074774;28;19942;-93
2022/04/22 03:26:22;;;;;;;;;;;12.60;99.90;;;;;;5079531;28;19912;-93
2022/04/22 03:28:57;;;;;;;;;;;12.60;99.90;;;;;;5077353;28;19915;-96
2022/04/22 03:31:31;;;;;;;;;;;12.60;99.90;;;;;;5077836;28;19908;-93
2022/04/22 03:34:00;;;;;;;;;;;12.70;99.90;;;;;;5075575;28;19954;-92
2022/04/22 03:36:44;;;;;;;;;;;12.70;99.90;;;;;;5080011;28;19932;-92
2022/04/22 03:39:15;;;;;;;;;;;12.70;99.90;;;;;;5078868;28;19909;-92
2022/04/22 03:42:10;;;;;;;;;;;12.80;99.90;;;;;;5075961;28;19912;-93
2022/04/22 03:44:38;;;;;;;;;;;12.80;99.90;;;;;;5056973;28;19920;-93
2022/04/22 03:47:23;;;;;;;;;;;12.80;99.90;;;;;;5079162;28;19912;-93
2022/04/22 03:49:51;;;;;;;;;;;12.80;99.90;;;;;;5074455;28;19909;-94
2022/04/22 03:52:24;;;;;;;;;;;12.80;99.90;;;;;;5071928;28;20350;-94
2022/04/22 03:54:55;;;;;;;;;;;12.80;99.90;;;;;;5095067;28;19905;-93
2022/04/22 04:00:24;;;;;;;;;;;12.80;99.90;;;;;;5078833;28;19915;-93
2022/04/22 04:02:51;;;;;;;;;;;12.90;99.90;;;;;;5075472;28;19968;-93
2022/04/22 04:05:32;;;;;;;;;;;12.80;99.90;;;;;;5078196;28;19909;-93
2022/04/22 04:07:58;;;;;;;;;;;12.90;99.90;;;;;;5076034;28;19909;-93
2022/04/22 04:16:16;;;;;;;;;;;13.00;99.90;;;;;;5074433;28;19916;-93
2022/04/22 04:18:50;;;;;;;;;;;12.90;99.90;;;;;;5074719;28;20151;-93
2022/04/22 04:24:14;;;;;;;;;;;12.90;99.90;;;;;;5077003;28;19927;-93
2022/04/22 04:26:53;;;;;;;;;;;12.90;99.90;;;;;;5079859;28;19899;-95
2022/04/22 04:29:28;;;;;;;;;;;12.90;99.90;;;;;;5074514;28;19909;-92
2022/04/22 04:32:05;;;;;;;;;;;;;;;;;;;;;
2022/04/22 04:34:38;;;;;;;;;;;12.90;99.90;;;;;;5066972;28;19931;-93
2022/04/22 04:37:27;;;;;;;;;;;12.90;99.90;;;;;;5060989;28;19936;-94
2022/04/22 04:40:00;;;;;;;;;;;12.80;99.90;;;;;;5061127;28;19908;-93
2022/04/22 04:42:50;;;;;;;;;;;12.80;99.90;;;;;;5061413;28;19909;-93
2022/04/22 04:45:23;;;;;;;;;;;12.80;99.90;;;;;;5065728;28;19925;-92
2022/04/22 04:47:59;;;;;;;;;;;12.70;99.90;;;;;;5060494;28;19999;-92
2022/04/22 04:50:34;;;;;;;;;;;12.70;99.90;;;;;;5062641;28;19986;-93
2022/04/22 04:53:08;;;;;;;;;;;12.60;99.90;;;;;;5063030;28;19916;-92
2022/04/22 04:55:44;;;;;;;;;;;12.60;99.90;;;;;;5062461;28;20050;-93
2022/04/22 04:58:11;;;;;;;;;;;12.60;99.90;;;;;;5064091;28;19916;-93
2022/04/22 05:00:37;;;;;;;;;;;12.60;99.90;;;;;;5064313;28;19948;-93
2022/04/22 05:03:08;;;;;;;;;;;12.50;99.90;;;;;;5069220;28;20259;-92
2022/04/22 05:05:33;;;;;;;;;;;12.50;99.90;;;;;;5081111;28;20031;-93
2022/04/22 05:08:02;;;;;;;;;;;12.50;99.90;;;;;;5079047;28;19955;-92
2022/04/22 05:10:40;;;;;;;;;;;12.50;99.90;;;;;;5079883;28;20105;-94
2022/04/22 05:13:27;;;;;;;;;;;12.60;99.90;;;;;;5072913;28;19962;-95
2022/04/22 05:16:16;;;;;;;;;;;12.60;99.90;;;;;;5079330;28;20341;-93
2022/04/22 05:18:50;;;;;;;;;;;12.60;99.90;;;;;;5076195;28;20384;-93
2022/04/22 05:21:29;;;;;;;;;;;12.50;99.90;;;;;;5080433;28;20210;-92
2022/04/22 05:24:04;;;;;;;;;;;12.50;99.90;;;;;;5069146;28;19916;-95
2022/04/22 05:26:37;;;;;;;;;;;12.50;99.90;;;;;;5081367;28;19913;-93
2022/04/22 05:35:07;;;;;;;;;;;12.50;99.90;;;;;;5082056;28;19958;-93
2022/04/22 05:37:51;;;;;;;;;;;12.60;99.90;;;;;;5080818;28;19909;-92
2022/04/22 05:41:07;;;;;;;;;;;12.60;99.90;;;;;;5070893;28;19908;-92
2022/04/22 05:43:35;;;;;;;;;;;12.70;99.90;;;;;;5073488;28;19916;-94
2022/04/22 05:46:08;;;;;;;;;;;12.70;99.90;;;;;;5082768;28;19972;-94
2022/04/22 05:48:39;;;;;;;;;;;12.80;99.90;;;;;;5085331;28;19939;-95
2022/04/22 05:51:05;;;;;;;;;;;12.70;99.90;;;;;;5079602;28;19908;-92
2022/04/22 05:53:30;;;;;;;;;;;12.60;99.90;;;;;;5075622;28;20471;-96
2022/04/22 05:56:07;;;;;;;;;;;12.70;99.90;;;;;;5078557;28;19965;-93
2022/04/22 05:58:40;;;;;;;;;;;12.80;99.90;;;;;;5078966;28;19909;-96
2022/04/22 06:01:12;;;;;;;;;;;12.90;99.90;;;;;;5078908;28;20183;-93
2022/04/22 06:03:56;;;;;;;;;;;12.90;99.90;;;;;;5077279;28;19924;-94
2022/04/22 06:06:42;;;;;;;;;;;13.00;99.90;;;;;;5079548;28;19908;-96
2022/04/22 06:12:08;;;;;;;;;;;13.00;99.90;;;;;;5080048;28;19915;-92
2022/04/22 06:14:36;;;;;;;;;;;13.10;99.90;;;;;;5076857;28;19916;-92
2022/04/22 06:17:10;;;;;;;;;;;13.10;99.90;;;;;;5080204;28;19909;-93
2022/04/22 06:22:37;;;;;;;;;;;13.20;99.90;;;;;;5079231;28;19971;-92
2022/04/22 06:25:07;;;;;;;;;;;13.30;99.90;;;;;;5080755;28;20184;-93
2022/04/22 06:27:51;;;;;;;;;;;13.30;99.90;;;;;;5081259;28;19912;-92
2022/04/22 06:30:22;;;;;;;;;;;13.40;99.90;;;;;;5081335;28;19939;-95
2022/04/22 06:32:52;;;;;;;;;;;13.40;99.90;;;;;;5078480;28;19912;-93
2022/04/22 06:35:29;;;;;;;;;;;13.30;99.90;;;;;;5078095;28;20373;-93
2022/04/22 06:38:07;;;;;;;;;;;13.40;99.90;;;;;;5081342;28;19909;-93
2022/04/22 06:46:30;;;;;;;;;;;13.40;99.90;;;;;;5078888;28;19915;-93
2022/04/22 06:49:09;;;;;;;;;;;;;;;;;;;;;
2022/04/22 06:51:35;;;;;;;;;;;13.40;99.90;;;;;;5075749;28;19976;-92
2022/04/22 06:54:34;;;;;;;;;;;13.40;99.90;;;;;;5078177;28;19917;-94
2022/04/22 06:57:05;;;;;;;;;;;13.40;99.90;;;;;;5084361;28;19908;-96
2022/04/22 06:59:40;;;;;;;;;;;13.50;99.90;;;;;;5083208;28;19920;-92
2022/04/22 07:02:30;;;;;;;;;;;13.60;99.90;;;;;;5079443;28;20286;-93
2022/04/22 07:05:19;;;;;;;;;;;13.70;99.90;;;;;;5070868;28;19969;-94
2022/04/22 07:08:06;;;;;;;;;;;13.90;99.90;;;;;;5080331;28;19912;-95
2022/04/22 07:10:41;;;;;;;;;;;13.90;99.90;;;;;;5076898;28;19916;-92
2022/04/22 07:13:39;;;;;;;;;;;13.90;99.90;;;;;;5078957;28;19909;-93
2022/04/22 07:16:25;;;;;;;;;;;13.90;99.90;;;;;;5082263;28;19943;-96
2022/04/22 07:19:19;;;;;;;;;;;14.00;99.90;;;;;;5073186;28;19904;-93
2022/04/22 07:21:58;;;;;;;;;;;;;;;;;;;;;
2022/04/22 07:27:39;;;;;;;;;;;14.40;99.90;;;;;;5076312;28;19978;-94
2022/04/22 07:30:07;;;;;;;;;;;14.60;99.90;;;;;;5068411;28;19974;-92
2022/04/22 07:32:33;;;;;;;;;;;14.80;99.90;;;;;;5032875;28;19913;-92
2022/04/22 07:34:59;;;;;;;;;;;14.90;99.90;;;;;;5029793;28;19967;-90
2022/04/22 07:37:24;;;;;;;;;;;15.00;99.90;;;;;;5060021;28;19913;-89
2022/04/22 07:39:50;;;;;;;;;;;15.00;99.90;;;;;;5041568;28;19966;-94
2022/04/22 07:42:17;;;;;;;;;;;15.10;99.90;;;;;;5032659;28;19948;-90
2022/04/22 07:47:33;;;;;;;;;;;15.10;99.90;;;;;;5049920;28;19970;-89
2022/04/22 07:50:02;;;;;;;;;;;15.20;99.90;;;;;;5038028;28;19905;-89
2022/04/22 07:52:28;;;;;;;;;;;15.30;99.90;;;;;;5054294;28;19951;-90
2022/04/22 07:54:54;;;;;;;;;;;15.40;99.90;;;;;;5051062;28;19960;-90
2022/04/22 07:57:21;;;;;;;;;;;15.50;99.90;;;;;;5032642;28;20419;-89
2022/04/22 07:59:47;;;;;;;;;;;15.50;99.90;;;;;;5050430;28;19956;-90
2022/04/22 08:02:12;;;;;;;;;;;15.70;99.90;;;;;;5049949;28;19959;-89
2022/04/22 08:04:38;;;;;;;;;;;15.90;99.90;;;;;;5032755;28;19915;-90
2022/04/22 08:07:06;;;;;;;;;;;16.00;99.90;;;;;;5032516;28;19909;-90
2022/04/22 08:09:31;;;;;;;;;;;16.00;99.90;;;;;;5050825;28;19915;-90
2022/04/22 08:11:57;;;;;;;;;;;15.90;99.90;;;;;;5050414;28;19908;-90
2022/04/22 08:14:23;;;;;;;;;;;16.10;99.90;;;;;;5053144;28;19912;-89
2022/04/22 08:16:49;;;;;;;;;;;15.90;99.90;;;;;;5037776;28;20317;-90
2022/04/22 08:19:14;;;;;;;;;;;16.00;99.90;;;;;;5036860;28;19913;-89
2022/04/22 08:21:40;;;;;;;;;;;16.10;99.90;;;;;;5054296;28;20385;-90
2022/04/22 08:24:10;;;;;;;;;;;15.90;99.90;;;;;;5053955;28;19925;-89
2022/04/22 08:26:35;;;;;;;;;;;16.20;99.90;;;;;;5057023;28;19905;-90
2022/04/22 08:29:01;;;;;;;;;;;16.40;99.90;;;;;;5053719;28;19915;-90
2022/04/22 08:31:26;;;;;;;;;;;16.30;99.90;;;;;;5056468;28;19909;-90
2022/04/22 08:33:55;;;;;;;;;;;16.20;99.90;;;;;;5055509;28;19923;-90
2022/04/22 08:36:21;;;;;;;;;;;16.50;99.90;;;;;;5055288;28;19909;-93
2022/04/22 08:38:47;;;;;;;;;;;16.60;99.90;;;;;;5054102;28;19909;-91
2022/04/22 08:41:13;;;;;;;;;;;16.70;99.90;;;;;;5036060;28;19940;-91
2022/04/22 08:43:39;;;;;;;;;;;16.80;99.90;;;;;;5054154;28;19909;-90
2022/04/22 08:49:58;;;;;;;;;;;16.60;99.90;;;;;;5036067;28;20438;-90
2022/04/22 08:51:37;;;;;;;;;;;16.70;99.90;;;;;;5054476;28;19954;-89
2022/04/22 08:54:03;;;;;;;;;;;16.90;99.90;;;;;;5053746;28;20335;-90
2022/04/22 08:56:29;;;;;;;;;;;17.00;99.90;;;;;;5035774;28;19909;-88
2022/04/22 08:58:54;;;;;;;;;;;16.80;99.90;;;;;;5053562;28;19916;-94
2022/04/22 09:01:22;;;;;;;;;;;16.80;99.90;;;;;;5052410;28;19967;-91
2022/04/22 09:03:48;;;;;;;;;;;16.80;99.90;;;;;;5050899;28;20002;-90
2022/04/22 09:06:14;;;;;;;;;;;16.80;99.90;;;;;;5035372;28;19998;-88
2022/04/22 09:08:40;;;;;;;;;;;16.70;99.90;;;;;;5053205;28;19954;-90
2022/04/22 09:11:05;;;;;;;;;;;16.70;99.90;;;;;;5053205;28;19941;-88
2022/04/22 09:13:31;;;;;;;;;;;16.80;99.90;;;;;;5053365;28;20040;-88
2022/04/22 09:15:57;;;;;;;;;;;16.90;99.90;;;;;;5035627;28;20491;-88
2022/04/22 09:18:25;;;;;;;;;;;17.00;99.90;;;;;;5034406;28;20292;-89
2022/04/22 09:20:50;;;;;;;;;;;17.10;99.90;;;;;;5035975;28;19905;-90
2022/04/22 09:23:32;;;;;;;;;;;17.10;99.90;;;;;;5053106;28;19915;-88
2022/04/22 09:25:58;;;;;;;;;;;17.10;99.90;;;;;;5052186;28;19964;-88
2022/04/22 09:28:24;;;;;;;;;;;16.70;99.90;;;;;;5057815;28;20262;-88
2022/04/22 09:31:15;;;;;;;;;;;16.50;99.90;;;;;;5057164;28;20031;-88
2022/04/22 09:33:41;;;;;;;;;;;16.20;99.90;;;;;;5050246;28;20389;-89
2022/04/22 09:44:48;;;;;;;;;;;15.80;99.90;;;;;;5049986;28;19956;-89
2022/04/22 09:47:14;;;;;;;;;;;15.80;99.90;;;;;;5052244;28;19948;-88
2022/04/22 09:49:43;;;;;;;;;;;15.90;99.90;;;;;;5051251;28;19920;-88
2022/04/22 09:52:08;;;;;;;;;;;16.10;99.90;;;;;;5052344;28;20199;-88
2022/04/22 09:54:34;;;;;;;;;;;16.20;99.90;;;;;;5052592;28;20218;-88
2022/04/22 09:57:03;;;;;;;;;;;16.20;99.90;;;;;;5050957;28;19915;-90
2022/04/22 09:59:29;;;;;;;;;;;16.10;99.90;;;;;;5052764;28;19909;-90
2022/04/22 10:01:54;;;;;;;;;;;16.20;99.90;;;;;;5054037;28;19897;-90
2022/04/22 10:04:21;;;;;;;;;;;16.10;99.90;;;;;;5053934;28;19996;-90
2022/04/22 10:06:47;;;;;;;;;;;16.00;99.90;;;;;;5056013;28;19916;-90
2022/04/22 10:09:16;;;;;;;;;;;15.90;99.90;;;;;;5044852;28;19921;-90
2022/04/22 10:11:54;;;;;;;;;;;15.80;99.90;;;;;;5052074;28;19917;-90
2022/04/22 10:14:31;;;;;;;;;;;15.80;99.90;;;;;;5056827;28;20390;-89
2022/04/22 10:16:56;;;;;;;;;;;15.80;99.90;;;;;;5057405;28;19913;-90
2022/04/22 10:19:22;;;;;;;;;;;15.70;99.90;;;;;;5053404;28;19975;-90
2022/04/22 10:21:49;;;;;;;;;;;15.60;99.90;;;;;;5054664;28;20388;-89
2022/04/22 10:24:15;;;;;;;;;;;15.60;99.90;;;;;;5061363;28;19905;-90
2022/04/22 10:26:41;;;;;;;;;;;15.60;99.90;;;;;;5058646;28;19926;-90
2022/04/22 10:29:09;;;;;;;;;;;15.60;99.90;;;;;;5073327;28;19965;-90
2022/04/22 10:31:35;;;;;;;;;;;15.60;99.90;;;;;;5073951;28;19919;-90
2022/04/22 10:34:07;;;;;;;;;;;15.70;99.90;;;;;;5053063;28;19916;-93
2022/04/22 10:36:33;;;;;;;;;;;16.00;99.90;;;;;;5071371;28;20380;-89
2022/04/22 10:38:59;;;;;;;;;;;16.50;99.90;;;;;;5070830;28;19913;-92
2022/04/22 10:41:24;;;;;;;;;;;17.00;99.90;;;;;;5071728;28;19916;-89
2022/04/22 10:47:13;;;;;;;;;;;17.40;99.90;;;;;;5071473;28;19908;-90
2022/04/22 10:49:34;;;;;;;;;;;18.60;99.90;;;;;;5082032;28;20208;-81
2022/04/22 10:52:02;;;;;;;;;;;19.20;99.90;;;;;;5063755;28;20261;-85
2022/04/22 10:54:46;;;;;;;;;;;19.40;99.90;;;;;;5063664;28;19925;-85
2022/04/22 10:57:23;;;;;;;;;;;19.60;99.90;;;;;;5070889;28;19919;-85
2022/04/22 11:00:04;;;;;;;;;;;19.50;99.90;;;;;;5070820;28;20273;-85
2022/04/22 11:02:34;;;;;;;;;;;19.20;99.90;;;;;;5070712;28;19935;-85
2022/04/22 11:05:21;;;;;;;;;;;19.10;99.90;;;;;;5052922;28;20007;-86
2022/04/22 11:07:47;;;;;;;;;;;19.30;99.90;;;;;;5067038;28;19912;-85
2022/04/22 11:10:14;;;;;;;;;;;19.50;99.90;;;;;;5070530;28;19909;-85
2022/04/22 11:12:53;;;;;;;;;;;19.80;99.90;;;;;;5070664;28;19978;-85
2022/04/22 11:15:38;;;;;;;;;;;20.00;99.90;;;;;;5070410;28;19917;-85
2022/04/22 11:18:03;;;;;;;;;;;20.00;99.90;;;;;;5070186;28;19909;-85
2022/04/22 11:20:29;;;;;;;;;;;19.70;99.90;;;;;;5052944;28;20319;-85
2022/04/22 11:22:56;;;;;;;;;;;19.50;99.90;;;;;;5070713;28;20352;-85
2022/04/22 11:25:25;;;;;;;;;;;19.20;99.90;;;;;;5070135;28;19943;-85
2022/04/22 11:27:53;;;;;;;;;;;19.00;99.90;;;;;;5070143;28;20369;-85
2022/04/22 11:30:19;;;;;;;;;;;18.90;99.90;;;;;;5071023;28;19908;-85
2022/04/22 11:32:48;;;;;;;;;;;19.10;99.90;;;;;;5070164;28;19957;-85
2022/04/22 11:35:25;;;;;;;;;;;19.10;99.90;;;;;;5070224;28;19970;-85
2022/04/22 11:38:00;;;;;;;;;;;19.40;99.90;;;;;;5070685;28;19915;-85
2022/04/22 11:40:26;;;;;;;;;;;19.40;99.90;;;;;;5070551;28;19941;-85
2022/04/22 11:42:54;;;;;;;;;;;19.90;99.90;;;;;;5071812;28;20003;-85
2022/04/22 11:45:20;;;;;;;;;;;19.90;99.90;;;;;;5052253;28;20284;-85
2022/04/22 11:47:46;;;;;;;;;;;20.20;99.90;;;;;;5069959;28;19912;-85
2022/04/22 11:50:19;;;;;;;;;;;20.20;99.90;;;;;;5069908;28;19995;-85
2022/04/22 11:52:51;;;;;;;;;;;20.20;99.90;;;;;;5064520;28;20054;-85
2022/04/22 11:55:16;;;;;;;;;;;19.80;99.90;;;;;;5052101;28;19928;-85
2022/04/22 11:57:42;;;;;;;;;;;19.50;99.90;;;;;;5070246;28;19908;-85
2022/04/22 12:05:36;;;;;;;;;;;18.80;99.90;;;;;;5070247;28;20276;-86
2022/04/22 12:08:07;;;;;;;;;;;18.30;99.90;;;;;;5069955;28;19909;-87
2022/04/22 12:10:33;;;;;;;;;;;18.40;99.90;;;;;;5069984;28;19909;-88
2022/04/22 12:13:03;;;;;;;;;;;18.50;99.90;;;;;;5070187;28;19908;-88
2022/04/22 12:15:29;;;;;;;;;;;19.00;99.90;;;;;;5070286;28;19916;-87
2022/04/22 12:17:55;;;;;;;;;;;19.70;99.90;;;;;;5051715;28;19914;-87
2022/04/22 12:20:20;;;;;;;;;;;20.30;99.90;;;;;;5070406;28;19909;-87
2022/04/22 12:22:49;;;;;;;;;;;20.60;99.90;;;;;;5070021;28;20396;-87
2022/04/22 12:25:16;;;;;;;;;;;20.60;99.90;;;;;;5069960;28;19934;-87
2022/04/22 12:27:42;;;;;;;;;;;20.90;99.90;;;;;;5070136;28;19909;-87
2022/04/22 12:30:12;;;;;;;;;;;21.10;99.90;;;;;;5052113;28;20380;-87
2022/04/22 12:32:38;;;;;;;;;;;21.20;99.90;;;;;;5052134;28;19908;-88
2022/04/22 12:35:14;;;;;;;;;;;21.00;99.90;;;;;;5069957;28;19916;-86
2022/04/22 12:37:49;;;;;;;;;;;21.00;99.90;;;;;;5069960;28;19909;-87
2022/04/22 12:40:14;;;;;;;;;;;21.20;99.90;;;;;;5051927;28;20308;-87
2022/04/22 12:42:40;;;;;;;;;;;21.40;99.90;;;;;;5070227;28;19908;-87
2022/04/22 12:53:28;;;;;;;;;;;22.10;99.90;;;;;;5070415;28;20384;-88
2022/04/22 12:56:07;;;;;;;;;;;22.20;99.90;;;;;;5051734;28;19912;-86
2022/04/22 12:58:48;;;;;;;;;;;22.20;99.90;;;;;;5069586;28;19908;-88
2022/04/22 13:01:18;;;;;;;;;;;22.10;99.90;;;;;;5071321;28;19942;-86
2022/04/22 13:03:44;;;;;;;;;;;22.30;99.90;;;;;;5073037;28;19916;-87
2022/04/22 13:06:09;;;;;;;;;;;22.60;99.90;;;;;;5055675;28;20284;-86
2022/04/22 13:08:35;;;;;;;;;;;22.60;99.90;;;;;;5055435;28;20369;-86
2022/04/22 13:11:02;;;;;;;;;;;22.60;99.90;;;;;;5055307;28;19909;-86
2022/04/22 13:13:27;;;;;;;;;;;22.60;99.90;;;;;;5055145;28;19916;-87
2022/04/22 13:15:53;;;;;;;;;;;22.60;99.90;;;;;;5073046;28;19913;-87
2022/04/22 13:18:20;;;;;;;;;;;22.60;99.90;;;;;;5054641;28;20004;-87
2022/04/22 13:20:46;;;;;;;;;;;22.60;99.90;;;;;;5073318;28;19915;-85
2022/04/22 13:23:11;;;;;;;;;;;23.10;99.90;;;;;;5072988;28;19909;-86
2022/04/22 13:25:37;;;;;;;;;;;23.80;99.90;;;;;;5072607;28;19928;-86
2022/04/22 13:28:03;;;;;;;;;;;24.00;99.90;;;;;;5073408;28;19913;-86
2022/04/22 13:30:28;;;;;;;;;;;23.90;99.90;;;;;;5073145;28;20038;-87
2022/04/22 13:32:54;;;;;;;;;;;23.80;99.90;;;;;;5054881;28;19908;-88
2022/04/22 13:35:20;;;;;;;;;;;23.80;99.90;;;;;;5054534;28;20376;-86
2022/04/22 13:37:46;;;;;;;;;;;24.00;99.90;;;;;;5072422;28;19912;-87
2022/04/22 13:40:12;;;;;;;;;;;23.00;99.90;;;;;;5054531;28;20046;-86
2022/04/22 13:42:37;;;;;;;;;;;22.00;99.90;;;;;;5054382;28;19912;-87
2022/04/22 13:53:16;;;;;;;;;;;23.10;99.90;;;;;;5074225;28;20410;-92
2022/04/22 13:55:41;;;;;;;;;;;23.40;99.90;;;;;;5072110;28;19948;-90
2022/04/22 13:58:07;;;;;;;;;;;23.80;99.90;;;;;;5072265;28;19908;-90
2022/04/22 14:00:34;;;;;;;;;;;25.00;99.90;;;;;;5072540;28;19912;-89
2022/04/22 14:02:59;;;;;;;;;;;26.20;99.10;;;;;;5072020;28;20067;-89
2022/04/22 14:05:25;;;;;;;;;;;26.60;97.80;;;;;;5072304;28;19908;-89
2022/04/22 14:07:51;;;;;;;;;;;26.70;97.10;;;;;;5054025;28;20006;-88
2022/04/22 14:10:17;;;;;;;;;;;26.50;96.90;;;;;;5071993;28;20019;-90
2022/04/22 14:12:43;;;;;;;;;;;26.60;97.40;;;;;;5054262;28;19989;-89
2022/04/22 14:15:09;;;;;;;;;;;26.00;97.90;;;;;;5071901;28;20433;-90
2022/04/22 14:17:34;;;;;;;;;;;26.40;98.00;;;;;;5076927;28;20397;-89
2022/04/22 14:20:01;;;;;;;;;;;26.50;97.70;;;;;;5083124;28;20051;-89
2022/04/22 14:22:26;;;;;;;;;;;26.00;97.60;;;;;;5063278;28;19931;-89
2022/04/22 14:24:52;;;;;;;;;;;26.10;97.80;;;;;;5079164;28;20316;-89
2022/04/22 14:27:17;;;;;;;;;;;25.40;98.20;;;;;;5053748;28;19972;-89
2022/04/22 14:29:44;;;;;;;;;;;25.10;98.90;;;;;;5071418;28;19915;-89
2022/04/22 14:32:09;;;;;;;;;;;24.70;98.90;;;;;;5070870;28;20400;-89
2022/04/22 14:34:36;;;;;;;;;;;24.40;99.20;;;;;;5053416;28;19916;-86
2022/04/22 14:37:02;;;;;;;;;;;24.00;99.10;;;;;;5073069;28;20025;-86
2022/04/22 14:39:31;;;;;;;;;;;23.60;99.90;;;;;;5055257;28;19975;-86
2022/04/22 14:41:56;;;;;;;;;;;23.00;99.90;;;;;;5053698;28;19912;-87
2022/04/22 14:44:22;;;;;;;;;;;22.70;99.90;;;;;;5055438;28;20184;-88
2022/04/22 14:46:47;;;;;;;;;;;22.60;99.90;;;;;;5057651;28;19908;-85
2022/04/22 14:49:15;;;;;;;;;;;22.80;99.90;;;;;;5053041;28;20148;-86
2022/04/22 14:51:51;;;;;;;;;;;23.40;99.90;;;;;;5071093;28;19939;-86
2022/04/22 14:54:17;;;;;;;;;;;23.80;99.80;;;;;;5071064;28;19916;-85
2022/04/22 14:56:42;;;;;;;;;;;24.40;99.40;;;;;;5071051;28;19909;-86
2022/04/22 14:59:10;;;;;;;;;;;26.00;98.50;;;;;;5070731;28;19908;-87
2022/04/22 15:01:36;;;;;;;;;;;28.30;96.40;;;;;;5052850;28;19908;-86
2022/04/22 15:04:02;;;;;;;;;;;30.40;95.20;;;;;;5070981;28;20262;-87
2022/04/22 15:06:28;;;;;;;;;;;30.90;93.50;;;;;;5052824;28;19999;-86
2022/04/22 15:08:54;;;;;;;;;;;32.30;92.90;;;;;;5070913;28;19954;-86
2022/04/22 15:11:19;;;;;;;;;;;31.60;91.60;;;;;;5052567;28;20372;-85
2022/04/22 15:13:45;;;;;;;;;;;30.60;92.10;;;;;;5070664;28;20027;-86
2022/04/22 15:16:10;;;;;;;;;;;27.70;94.70;;;;;;5070729;28;19999;-86
2022/04/22 15:24:10;;;;;;;;;;;25.80;97.00;;;;;;5069885;28;19982;-85
2022/04/22 15:26:41;;;;;;;;;;;24.60;98.30;;;;;;5052599;28;20116;-86
2022/04/22 15:29:07;;;;;;;;;;;24.30;98.80;;;;;;5070207;28;19912;-86
2022/04/22 15:31:32;;;;;;;;;;;23.60;99.20;;;;;;5069993;28;19909;-85
2022/04/22 15:33:58;;;;;;;;;;;22.40;99.90;;;;;;5052290;28;19912;-85
2022/04/22 15:36:23;;;;;;;;;;;21.60;99.90;;;;;;5070433;28;20327;-85
2022/04/22 15:38:50;;;;;;;;;;;21.20;99.90;;;;;;5070808;28;19943;-85
2022/04/22 15:41:20;;;;;;;;;;;23.00;99.90;;;;;;5070537;28;19954;-86
2022/04/22 15:43:50;;;;;;;;;;;24.90;98.70;;;;;;5070615;28;20342;-87
2022/04/22 15:46:16;;;;;;;;;;;26.10;96.90;;;;;;5070196;28;19915;-85
2022/04/22 15:48:41;;;;;;;;;;;25.70;97.10;;;;;;5069865;28;19909;-86
2022/04/22 15:51:09;;;;;;;;;;;25.70;97.40;;;;;;5070083;28;20338;-86
2022/04/22 15:53:35;;;;;;;;;;;25.60;97.60;;;;;;5070111;28;19916;-86
2022/04/22 15:56:01;;;;;;;;;;;26.70;96.60;;;;;;5070527;28;19943;-85
2022/04/22 15:58:29;;;;;;;;;;;27.80;95.10;;;;;;5070304;28;19915;-88
2022/04/22 16:00:55;;;;;;;;;;;26.90;95.70;;;;;;5070569;28;20148;-86
2022/04/22 16:03:21;;;;;;;;;;;26.20;96.10;;;;;;5051591;28;19916;-86
2022/04/22 16:05:47;;;;;;;;;;;24.60;97.90;;;;;;5054639;28;19912;-87
2022/04/22 16:08:13;;;;;;;;;;;23.40;99.20;;;;;;5071422;28;19962;-86
2022/04/22 16:10:39;;;;;;;;;;;22.70;99.90;;;;;;5069399;28;19952;-86
2022/04/22 16:15:49;;;;;;;;;;;22.30;99.90;;;;;;5069918;28;20507;-86
2022/04/22 16:18:15;;;;;;;;;;;22.40;99.90;;;;;;5069576;28;20006;-86
2022/04/22 16:20:42;;;;;;;;;;;22.70;99.90;;;;;;5070241;28;20365;-85
2022/04/22 16:23:07;;;;;;;;;;;22.70;99.90;;;;;;5069948;28;19909;-87
2022/04/22 16:25:33;;;;;;;;;;;22.60;99.90;;;;;;5069646;28;20335;-87